createdAt,value
2019-04-03T00:01:46.074Z,5.67
2019-04-03T00:04:17.537Z,6.07
2019-04-03T00:06:47.838Z,7.53
2019-04-03T00:09:18.291Z,5.43
2019-04-03T00:11:47.806Z,3.40
2019-04-03T00:14:17.326Z,5.97
2019-04-03T00:16:50.249Z,4.47
2019-04-03T00:19:20.345Z,2.97
2019-04-03T00:21:50.607Z,3.07
2019-04-03T00:24:22.123Z,4.17
2019-04-03T00:26:52.697Z,2.13
2019-04-03T00:29:22.678Z,4.37
2019-04-03T00:31:54.062Z,1.83
2019-04-03T00:34:23.888Z,2.33
2019-04-03T00:36:53.715Z,2.70
2019-04-03T00:39:24.422Z,1.90
2019-04-03T00:41:55.164Z,2.27
2019-04-03T00:44:24.819Z,1.93
2019-04-03T00:46:55.729Z,2.67
2019-04-03T00:49:26.079Z,2.87
2019-04-03T00:51:57.455Z,3.43
2019-04-03T00:54:27.216Z,4.43
2019-04-03T00:56:57.654Z,3.10
2019-04-03T00:59:27.486Z,3.23
2019-04-03T01:01:57.179Z,2.50
2019-04-03T01:04:28.937Z,2.47
2019-04-03T01:06:59.006Z,2.83
2019-04-03T01:09:29.846Z,2.40
2019-04-03T01:12:05.792Z,2.70
2019-04-03T01:14:35.610Z,3.53
2019-04-03T01:17:05.514Z,3.53
2019-04-03T01:19:36.748Z,4.73
2019-04-03T01:22:08.759Z,3.37
2019-04-03T01:24:39.070Z,3.50
2019-04-03T01:27:12.260Z,2.80
2019-04-03T01:29:43.220Z,3.80
2019-04-03T01:32:15.503Z,3.77
2019-04-03T01:34:44.108Z,4.03
2019-04-03T01:37:14.034Z,4.23
2019-04-03T01:39:43.170Z,4.47
2019-04-03T01:42:14.255Z,5.83
2019-04-03T01:44:57.781Z,7.17
2019-04-03T01:47:29.944Z,10.57
2019-04-03T01:49:59.403Z,11.63
2019-04-03T01:52:31.845Z,9.23
2019-04-03T01:55:03.345Z,10.57
2019-04-03T01:57:32.232Z,11.37
2019-04-03T02:00:06.967Z,10.93
2019-04-03T02:02:36.881Z,10.57
2019-04-03T02:05:07.863Z,16.30
2019-04-03T02:07:37.907Z,12.33
2019-04-03T02:10:12.377Z,16.53
2019-04-03T02:12:41.990Z,12.47
2019-04-03T02:15:11.226Z,12.07
2019-04-03T02:17:40.361Z,12.33
2019-04-03T02:20:10.446Z,15.13
2019-04-03T02:22:41.560Z,13.60
2019-04-03T02:25:10.557Z,13.03
2019-04-03T02:27:39.751Z,14.73
2019-04-03T02:30:12.281Z,16.50
2019-04-03T02:32:43.172Z,14.63
2019-04-03T02:35:12.590Z,13.10
2019-04-03T02:37:42.493Z,15.63
2019-04-03T02:40:14.802Z,16.70
2019-04-03T02:42:44.539Z,17.90
2019-04-03T02:45:14.337Z,15.20
2019-04-03T02:47:44.390Z,13.93
2019-04-03T02:50:17.013Z,11.87
2019-04-03T02:52:46.274Z,16.07
2019-04-03T02:55:16.792Z,14.47
2019-04-03T02:57:48.508Z,13.80
2019-04-03T03:00:19.055Z,15.87
2019-04-03T03:02:49.605Z,16.90
2019-04-03T03:05:18.778Z,14.37
2019-04-03T03:07:49.310Z,14.77
2019-04-03T03:10:21.924Z,12.67
2019-04-03T03:12:51.152Z,16.57
2019-04-03T03:15:20.341Z,15.13
2019-04-03T03:17:50.276Z,13.67
2019-04-03T03:20:22.639Z,13.40
2019-04-03T03:22:51.854Z,12.67
2019-04-03T03:25:20.998Z,13.57
2019-04-03T03:27:50.203Z,11.50
2019-04-03T03:30:35.983Z,11.70
2019-04-03T03:32:50.635Z,14.33
2019-04-03T03:35:27.890Z,11.83
2019-04-03T03:37:51.100Z,12.67
2019-04-03T03:40:20.336Z,10.13
2019-04-03T03:42:49.563Z,13.23
2019-04-03T03:45:20.586Z,12.03
2019-04-03T03:47:49.969Z,13.43
2019-04-03T03:50:25.079Z,12.17
2019-04-03T03:52:55.461Z,12.30
2019-04-03T03:55:25.649Z,12.50
2019-04-03T03:57:56.322Z,11.00
2019-04-03T04:00:25.789Z,11.20
2019-04-03T04:02:55.296Z,10.10
2019-04-03T04:05:24.601Z,13.20
2019-04-03T04:07:53.849Z,9.13
2019-04-03T04:10:25.195Z,14.23
2019-04-03T04:12:53.952Z,10.00
2019-04-03T04:15:23.779Z,10.47
2019-04-03T04:17:53.554Z,9.60
2019-04-03T04:20:23.284Z,8.87
2019-04-03T04:22:52.902Z,9.20
2019-04-03T04:25:22.296Z,11.13
2019-04-03T04:27:51.501Z,11.43
2019-04-03T04:30:22.085Z,10.80
2019-04-03T04:32:51.275Z,10.03
2019-04-03T04:35:21.514Z,11.23
2019-04-03T04:37:51.376Z,12.60
2019-04-03T04:40:21.576Z,11.20
2019-04-03T04:42:51.230Z,8.23
2019-04-03T04:45:20.500Z,9.33
2019-04-03T04:47:49.640Z,9.50
2019-04-03T04:50:27.836Z,11.43
2019-04-03T04:52:58.689Z,10.90
2019-04-03T04:55:30.425Z,11.17
2019-04-03T04:57:58.783Z,10.63
2019-04-03T05:00:29.500Z,9.60
2019-04-03T05:03:01.063Z,9.20
2019-04-03T05:05:31.103Z,12.60
2019-04-03T05:08:01.966Z,11.80
2019-04-03T05:10:31.906Z,12.60
2019-04-03T05:13:01.633Z,6.77
2019-04-03T05:15:30.799Z,10.57
2019-04-03T05:18:00.125Z,8.13
2019-04-03T05:20:29.460Z,15.57
2019-04-03T05:22:59.335Z,12.57
2019-04-03T05:25:29.860Z,12.87
2019-04-03T05:27:59.355Z,11.30
2019-04-03T05:30:31.764Z,10.63
2019-04-03T05:33:01.084Z,13.30
2019-04-03T05:35:30.232Z,11.10
2019-04-03T05:37:59.368Z,13.87
2019-04-03T05:40:28.475Z,15.13
2019-04-03T05:42:58.105Z,11.93
2019-04-03T05:45:28.593Z,15.40
2019-04-03T05:47:57.751Z,16.00
2019-04-03T05:50:27.223Z,14.37
2019-04-03T05:52:56.937Z,15.67
2019-04-03T05:55:26.115Z,14.17
2019-04-03T05:57:55.401Z,13.33
2019-04-03T06:00:24.802Z,15.13
2019-04-03T06:02:56.924Z,17.13
2019-04-03T06:05:26.199Z,15.60
2019-04-03T06:07:55.378Z,16.40
2019-04-03T06:10:27.314Z,20.37
2019-04-03T06:12:55.791Z,18.63
2019-04-03T06:15:25.108Z,14.53
2019-04-03T06:17:55.696Z,17.37
2019-04-03T06:20:25.242Z,20.23
2019-04-03T06:22:54.720Z,14.87
2019-04-03T06:25:24.095Z,13.30
2019-04-03T06:27:53.709Z,14.33
2019-04-03T06:30:24.926Z,12.23
2019-04-03T06:32:57.275Z,16.43
2019-04-03T06:35:26.853Z,15.07
2019-04-03T06:37:56.911Z,15.30
2019-04-03T06:40:26.150Z,11.83
2019-04-03T06:42:55.699Z,13.30
2019-04-03T06:45:26.125Z,15.57
2019-04-03T06:47:55.766Z,17.67
2019-04-03T06:50:24.878Z,15.50
2019-04-03T06:52:54.180Z,12.63
2019-04-03T06:55:25.318Z,13.33
2019-04-03T06:57:54.229Z,11.07
2019-04-03T07:00:23.504Z,14.37
2019-04-03T07:02:52.772Z,16.97
2019-04-03T07:05:22.099Z,17.17
2019-04-03T07:07:51.365Z,25.13
2019-04-03T07:10:25.740Z,16.23
2019-04-03T07:12:51.491Z,12.37
2019-04-03T07:15:20.993Z,21.07
2019-04-03T07:17:51.732Z,19.03
2019-04-03T07:20:21.236Z,18.17
2019-04-03T07:22:50.503Z,17.97
2019-04-03T07:25:19.627Z,15.63
2019-04-03T07:27:48.825Z,18.47
2019-04-03T07:30:18.162Z,16.13
2019-04-03T07:32:47.425Z,13.63
2019-04-03T07:35:16.585Z,19.80
2019-04-03T07:37:45.828Z,14.07
2019-04-03T07:40:14.976Z,16.63
2019-04-03T07:42:44.371Z,16.80
2019-04-03T07:45:13.989Z,24.60
2019-04-03T07:47:43.454Z,14.77
2019-04-03T07:50:12.985Z,18.40
2019-04-03T07:52:42.784Z,18.53
2019-04-03T07:55:12.313Z,16.97
2019-04-03T07:57:41.637Z,15.97
2019-04-03T08:00:11.093Z,22.77
2019-04-03T08:02:45.364Z,14.27
2019-04-03T08:05:12.968Z,19.20
2019-04-03T08:07:42.242Z,13.57
2019-04-03T08:10:11.392Z,14.47
2019-04-03T08:12:40.591Z,18.13
2019-04-03T08:15:12.742Z,23.13
2019-04-03T08:17:40.675Z,15.30
2019-04-03T08:20:09.903Z,22.37
2019-04-03T08:22:39.142Z,19.37
2019-04-03T08:25:10.714Z,19.30
2019-04-03T08:27:39.262Z,20.27
2019-04-03T08:30:08.816Z,17.97
2019-04-03T08:32:38.125Z,18.63
2019-04-03T08:35:19.879Z,15.27
2019-04-03T08:37:40.529Z,14.83
2019-04-03T08:40:09.203Z,16.03
2019-04-03T08:42:38.328Z,12.10
2019-04-03T08:45:09.301Z,12.70
2019-04-03T08:47:40.811Z,17.23
2019-04-03T08:50:10.490Z,11.50
2019-04-03T08:52:39.724Z,12.07
2019-04-03T08:55:09.189Z,9.73
2019-04-03T08:57:38.709Z,11.63
2019-04-03T09:00:07.918Z,12.13
2019-04-03T09:02:37.002Z,11.50
2019-04-03T09:05:07.079Z,8.27
2019-04-03T09:07:36.273Z,9.20
2019-04-03T09:10:06.466Z,13.10
2019-04-03T09:12:37.578Z,10.67
2019-04-03T09:15:06.865Z,8.63
2019-04-03T09:17:36.074Z,10.27
2019-04-03T09:20:05.541Z,11.23
2019-04-03T09:22:34.801Z,17.77
2019-04-03T09:25:04.354Z,16.17
2019-04-03T09:27:33.674Z,20.30
2019-04-03T09:30:03.092Z,23.07
2019-04-03T09:32:32.308Z,19.27
2019-04-03T09:35:02.413Z,19.30
2019-04-03T09:37:32.012Z,23.63
2019-04-03T09:40:01.248Z,16.63
2019-04-03T09:42:30.418Z,18.93
2019-04-03T09:44:59.514Z,17.30
2019-04-03T09:47:28.630Z,15.10
2019-04-03T09:49:57.736Z,19.33
2019-04-03T09:52:37.975Z,16.27
2019-04-03T09:54:59.765Z,17.87
2019-04-03T09:57:30.762Z,17.80
2019-04-03T09:59:59.507Z,20.10
2019-04-03T10:02:28.740Z,14.53
2019-04-03T10:04:59.054Z,13.83
2019-04-03T10:07:31.006Z,13.93
2019-04-03T10:09:59.183Z,12.63
2019-04-03T10:12:28.319Z,14.33
2019-04-03T10:14:59.210Z,16.83
2019-04-03T10:17:28.552Z,14.37
2019-04-03T10:19:57.730Z,12.97
2019-04-03T10:22:26.882Z,13.07
2019-04-03T10:24:56.338Z,13.20
2019-04-03T10:27:25.785Z,13.47
2019-04-03T10:29:56.376Z,14.47
2019-04-03T10:32:27.991Z,12.77
2019-04-03T10:34:57.774Z,8.53
2019-04-03T10:37:27.211Z,7.37
2019-04-03T10:39:56.358Z,7.07
2019-04-03T10:42:25.794Z,8.10
2019-04-03T10:44:55.104Z,6.80
2019-04-03T10:47:30.180Z,8.03
2019-04-03T10:49:55.373Z,6.17
2019-04-03T10:52:24.794Z,7.70
2019-04-03T10:54:54.293Z,5.77
2019-04-03T10:57:25.089Z,6.10
2019-04-03T10:59:55.083Z,5.73
2019-04-03T11:02:24.825Z,4.90
2019-04-03T11:04:53.924Z,7.07
2019-04-03T11:07:23.075Z,6.67
2019-04-03T11:09:52.236Z,5.03
2019-04-03T11:12:23.443Z,6.27
2019-04-03T11:14:52.635Z,6.03
2019-04-03T11:17:23.777Z,5.47
2019-04-03T11:19:52.811Z,6.03
2019-04-03T11:22:22.286Z,8.17
2019-04-03T11:24:51.890Z,5.33
2019-04-03T11:27:22.971Z,6.20
2019-04-03T11:29:52.066Z,6.80
2019-04-03T11:32:23.137Z,7.47
2019-04-03T11:34:53.758Z,5.30
2019-04-03T11:37:23.108Z,8.87
2019-04-03T11:40:02.459Z,7.00
2019-04-03T11:42:27.177Z,7.13
2019-04-03T11:44:54.292Z,6.43
2019-04-03T11:47:23.622Z,7.57
2019-04-03T11:49:53.233Z,5.67
2019-04-03T11:52:23.355Z,6.60
2019-04-03T11:54:53.397Z,5.03
2019-04-03T11:57:22.895Z,3.50
2019-04-03T11:59:53.000Z,2.27
2019-04-03T12:02:23.066Z,1.83
2019-04-03T12:04:53.577Z,2.67
2019-04-03T12:07:24.627Z,2.57
2019-04-03T12:09:54.011Z,2.50
2019-04-03T12:12:23.810Z,2.10
2019-04-03T12:14:53.224Z,1.70
2019-04-03T12:17:22.663Z,2.33
2019-04-03T12:19:52.111Z,1.67
2019-04-03T12:22:22.597Z,1.70
2019-04-03T12:24:52.351Z,2.30
2019-04-03T12:27:21.550Z,4.10
2019-04-03T12:29:53.866Z,3.93
2019-04-03T12:32:21.625Z,2.03
2019-04-03T12:34:50.991Z,2.53
2019-04-03T12:37:20.588Z,1.97
2019-04-03T12:39:49.944Z,1.70
2019-04-03T12:42:19.075Z,2.90
2019-04-03T12:44:48.200Z,2.10
2019-04-03T12:47:17.326Z,2.43
2019-04-03T12:49:46.438Z,3.50
2019-04-03T12:52:15.702Z,2.57
2019-04-03T12:54:45.023Z,2.37
2019-04-03T12:57:14.175Z,2.50
2019-04-03T12:59:43.736Z,2.13
2019-04-03T13:02:14.293Z,2.30
2019-04-03T13:04:43.660Z,2.93
2019-04-03T13:07:14.468Z,3.13
2019-04-03T13:09:44.337Z,3.23
2019-04-03T13:12:13.982Z,2.90
2019-04-03T13:14:44.581Z,2.30
2019-04-03T13:17:14.790Z,2.70
2019-04-03T13:19:44.626Z,2.83
2019-04-03T13:22:13.864Z,3.50
2019-04-03T13:24:43.173Z,3.07
2019-04-03T13:27:12.399Z,3.67
2019-04-03T13:29:41.687Z,4.13
2019-04-03T13:32:10.929Z,2.80
2019-04-03T13:34:42.679Z,3.63
2019-04-03T13:37:11.128Z,3.83
2019-04-03T13:39:40.539Z,2.60
2019-04-03T13:42:11.332Z,3.30
2019-04-03T13:44:40.773Z,3.13
2019-04-03T13:47:15.826Z,2.97
2019-04-03T13:49:45.392Z,2.77
2019-04-03T13:52:17.785Z,3.77
2019-04-03T13:54:47.000Z,2.90
2019-04-03T13:57:16.315Z,3.13
2019-04-03T13:59:48.260Z,3.67
2019-04-03T14:02:17.621Z,3.10
2019-04-03T14:04:48.969Z,3.50
2019-04-03T14:07:17.703Z,2.77
2019-04-03T14:09:50.643Z,2.93
2019-04-03T14:12:17.946Z,3.13
2019-04-03T14:14:47.927Z,4.70
2019-04-03T14:17:18.710Z,2.63
2019-04-03T14:19:50.595Z,3.17
2019-04-03T14:22:19.339Z,2.50
2019-04-03T14:24:52.070Z,3.13
2019-04-03T14:27:24.475Z,3.23
2019-04-03T14:29:50.649Z,5.57
2019-04-03T14:32:21.718Z,4.07
2019-04-03T14:34:51.389Z,5.73
2019-04-03T14:37:25.512Z,4.23
2019-04-03T14:39:51.427Z,5.67
2019-04-03T14:42:20.788Z,4.00
2019-04-03T14:44:51.300Z,3.83
2019-04-03T14:47:23.993Z,3.33
2019-04-03T14:49:54.920Z,3.40
2019-04-03T14:52:24.116Z,4.37
2019-04-03T14:54:56.742Z,3.60
2019-04-03T14:57:28.387Z,3.63
2019-04-03T14:59:58.088Z,4.30
2019-04-03T15:02:27.186Z,6.07
2019-04-03T15:04:56.555Z,5.33
2019-04-03T15:07:27.973Z,5.33
2019-04-03T15:09:57.233Z,6.67
2019-04-03T15:12:27.997Z,5.37
2019-04-03T15:14:57.143Z,5.30
2019-04-03T15:17:27.624Z,9.57
2019-04-03T15:19:57.233Z,6.60
2019-04-03T15:22:26.911Z,8.17
2019-04-03T15:24:56.253Z,6.67
2019-04-03T15:27:27.539Z,6.27
2019-04-03T15:29:56.721Z,7.67
2019-04-03T15:32:26.461Z,5.13
2019-04-03T15:34:57.214Z,6.23
2019-04-03T15:37:26.834Z,4.50
2019-04-03T15:39:59.132Z,4.87
2019-04-03T15:42:29.092Z,5.10
2019-04-03T15:44:58.694Z,6.93
2019-04-03T15:47:37.509Z,5.17
2019-04-03T15:50:00.433Z,5.13
2019-04-03T15:52:29.800Z,6.07
2019-04-03T15:54:59.063Z,5.57
2019-04-03T15:57:28.678Z,5.37
2019-04-03T15:59:58.024Z,5.43
2019-04-03T16:02:28.597Z,5.37
2019-04-03T16:04:59.429Z,5.80
2019-04-03T16:07:31.716Z,5.77
2019-04-03T16:10:00.120Z,6.07
2019-04-03T16:12:30.225Z,5.87
2019-04-03T16:14:59.656Z,6.27
2019-04-03T16:17:32.311Z,5.47
2019-04-03T16:20:01.079Z,5.80
2019-04-03T16:22:31.707Z,5.87
2019-04-03T16:25:01.224Z,5.07
2019-04-03T16:27:30.697Z,5.33
2019-04-03T16:29:59.989Z,5.87
2019-04-03T16:32:29.370Z,3.60
2019-04-03T16:34:58.981Z,5.00
2019-04-03T16:37:28.154Z,4.70
2019-04-03T16:39:57.469Z,3.20
2019-04-03T16:42:27.146Z,3.67
2019-04-03T16:44:58.330Z,3.77
2019-04-03T16:47:27.780Z,3.83
2019-04-03T16:49:58.725Z,3.93
2019-04-03T16:52:30.185Z,2.80
2019-04-03T16:55:00.972Z,2.77
2019-04-03T16:57:37.492Z,16.93
2019-04-03T17:00:08.939Z,4.40
2019-04-03T17:02:38.420Z,5.60
2019-04-03T17:05:10.294Z,2.40
2019-04-03T17:07:38.613Z,2.50
2019-04-03T17:10:10.051Z,5.10
2019-04-03T17:12:38.900Z,2.57
2019-04-03T17:15:09.745Z,5.70
2019-04-03T17:17:39.299Z,2.83
2019-04-03T17:20:09.729Z,3.13
2019-04-03T17:22:45.083Z,2.23
2019-04-03T17:25:14.306Z,3.17
2019-04-03T17:27:55.218Z,1.63
2019-04-03T17:30:20.083Z,1.60
2019-04-03T17:32:51.690Z,1.80
2019-04-03T17:35:21.392Z,2.20
2019-04-03T17:37:50.782Z,2.07
2019-04-03T17:40:20.105Z,3.80
2019-04-03T17:42:49.229Z,2.00
2019-04-03T17:45:18.960Z,2.37
2019-04-03T17:47:49.649Z,3.00
2019-04-03T17:50:21.113Z,3.97
2019-04-03T17:52:59.469Z,3.27
2019-04-03T17:56:07.624Z,3.63
2019-04-03T17:58:40.240Z,3.23
2019-04-03T18:01:34.928Z,5.07
2019-04-03T18:04:15.551Z,3.00
2019-04-03T18:06:50.223Z,4.23
2019-04-03T18:09:21.839Z,3.83
2019-04-03T18:11:57.987Z,3.58
2019-04-03T18:14:36.373Z,4.23
2019-04-03T18:20:14.606Z,4.90
2019-04-03T18:23:10.921Z,3.13
2019-04-03T18:25:47.291Z,4.20
2019-04-03T18:29:07.221Z,3.63
2019-04-03T18:31:44.536Z,4.30
2019-04-03T18:34:22.066Z,3.30
2019-04-03T18:37:01.871Z,3.77
2019-04-03T18:39:34.151Z,4.33
2019-04-03T18:42:11.724Z,4.53
2019-04-03T18:45:00.542Z,7.20
2019-04-03T18:48:05.750Z,5.60
2019-04-03T18:50:51.267Z,3.87
2019-04-03T18:53:53.745Z,5.50
2019-04-03T18:56:49.833Z,4.40
2019-04-03T18:59:31.275Z,6.20
2019-04-03T19:02:18.347Z,3.60
2019-04-03T19:05:01.118Z,5.63
2019-04-03T19:07:47.799Z,4.37
2019-04-03T19:11:01.643Z,4.63
2019-04-03T19:13:28.245Z,10.43
2019-04-03T19:16:08.327Z,4.93
2019-04-03T19:19:10.443Z,4.20
2019-04-03T19:22:04.035Z,2.73
2019-04-03T19:24:58.743Z,3.80
2019-04-03T19:27:28.820Z,3.50
2019-04-03T19:29:58.684Z,4.40
2019-04-03T19:32:34.487Z,4.43
2019-04-03T19:35:09.528Z,4.40
2019-04-03T19:37:41.323Z,4.37
2019-04-03T19:40:11.235Z,4.10
2019-04-03T19:42:41.871Z,3.50
2019-04-03T19:45:13.742Z,3.97
2019-04-03T19:47:45.894Z,3.90
2019-04-03T19:50:17.765Z,4.40
2019-04-03T19:52:47.255Z,3.73
2019-04-03T19:55:19.251Z,4.97
2019-04-03T19:57:49.995Z,3.83
2019-04-03T20:00:23.625Z,4.13
2019-04-03T20:02:54.503Z,4.37
2019-04-03T20:05:25.765Z,5.43
2019-04-03T20:07:55.030Z,5.23
2019-04-03T20:10:27.981Z,5.23
2019-04-03T20:12:57.344Z,5.80
2019-04-03T20:15:26.498Z,5.83
2019-04-03T20:17:58.786Z,5.10
2019-04-03T20:20:33.583Z,4.23
2019-04-03T20:23:02.488Z,4.37
2019-04-03T20:25:36.715Z,5.10
2019-04-03T20:28:07.882Z,5.57
2019-04-03T20:30:37.971Z,5.07
2019-04-03T20:33:09.724Z,6.47
2019-04-03T20:35:51.166Z,5.07
2019-04-03T20:38:21.745Z,6.27
2019-04-03T20:40:51.413Z,5.20
2019-04-03T20:43:23.852Z,5.13
2019-04-03T20:45:59.019Z,4.30
2019-04-03T20:48:28.752Z,4.90
2019-04-03T20:51:00.364Z,4.30
2019-04-03T20:53:30.042Z,4.67
2019-04-03T20:55:59.799Z,4.13
2019-04-03T20:58:31.052Z,5.93
2019-04-03T21:01:06.788Z,5.60
2019-04-03T21:03:34.290Z,5.40
2019-04-03T21:06:03.929Z,5.33
2019-04-03T21:08:54.304Z,3.40
2019-04-03T21:11:23.656Z,8.53
2019-04-03T21:13:55.173Z,3.90
2019-04-03T21:16:33.249Z,4.97
2019-04-03T21:18:55.454Z,8.27
2019-04-03T21:21:26.279Z,5.67
2019-04-03T21:23:56.074Z,4.30
2019-04-03T21:26:25.323Z,6.30
2019-04-03T21:28:54.525Z,5.53
2019-04-03T21:31:25.962Z,6.13
2019-04-03T21:34:01.558Z,5.57
2019-04-03T21:36:31.665Z,6.10
2019-04-03T21:39:00.850Z,7.43
2019-04-03T21:41:30.108Z,7.50
2019-04-03T21:44:02.877Z,7.50
2019-04-03T21:46:32.092Z,6.80
2019-04-03T21:49:01.267Z,8.30
2019-04-03T21:51:33.603Z,7.90
2019-04-03T21:54:02.804Z,9.80
2019-04-03T21:56:33.428Z,7.53
2019-04-03T21:59:02.845Z,8.60
2019-04-03T22:01:32.231Z,9.03
2019-04-03T22:04:04.189Z,11.10
2019-04-03T22:06:33.371Z,9.20
2019-04-03T22:09:03.477Z,9.23
2019-04-03T22:11:34.845Z,9.90
2019-04-03T22:14:06.019Z,11.17
2019-04-03T22:16:37.074Z,9.70
2019-04-03T22:19:06.563Z,9.17
2019-04-03T22:21:35.778Z,10.30
2019-04-03T22:24:09.356Z,11.50
2019-04-03T22:26:40.790Z,10.67
2019-04-03T22:29:11.303Z,11.60
2019-04-03T22:31:40.625Z,12.30
2019-04-03T22:34:10.219Z,10.20
2019-04-03T22:36:42.435Z,9.57
2019-04-03T22:39:13.655Z,12.77
2019-04-03T22:41:46.671Z,11.47
2019-04-03T22:44:17.108Z,11.37
2019-04-03T22:46:47.091Z,11.10
2019-04-03T22:49:16.381Z,10.83
2019-04-03T22:51:46.093Z,13.93
2019-04-03T22:54:15.233Z,12.27
2019-04-03T22:56:45.897Z,13.80
2019-04-03T22:59:15.427Z,12.27
2019-04-03T23:01:44.664Z,13.13
2019-04-03T23:04:14.705Z,14.00
2019-04-03T23:06:43.918Z,14.37
2019-04-03T23:09:14.057Z,14.37
2019-04-03T23:11:43.203Z,15.50
2019-04-03T23:14:12.475Z,16.07
2019-04-03T23:16:42.675Z,14.63
2019-04-03T23:19:12.418Z,17.47
2019-04-03T23:21:44.214Z,14.80
2019-04-03T23:24:14.786Z,18.63
2019-04-03T23:26:44.228Z,18.47
2019-04-03T23:29:13.436Z,15.33
2019-04-03T23:31:45.519Z,16.90
2019-04-03T23:34:15.135Z,15.20
2019-04-03T23:36:47.647Z,17.30
2019-04-03T23:39:19.243Z,15.70
2019-04-03T23:41:49.000Z,14.83
2019-04-03T23:44:18.435Z,13.57
2019-04-03T23:46:47.703Z,14.20
2019-04-03T23:49:18.153Z,14.97
2019-04-03T23:51:50.824Z,14.93
2019-04-03T23:54:20.008Z,18.50
2019-04-03T23:56:51.886Z,17.67
2019-04-03T23:59:21.081Z,16.33
